createdAt,value
2022-11-25T00:04:37.110Z,11.60
2022-11-25T00:09:39.080Z,16.35
2022-11-25T00:14:40.800Z,9.57
2022-11-25T00:19:42.542Z,6.35
2022-11-25T00:24:44.283Z,7.40
2022-11-25T00:29:46.009Z,10.43
2022-11-25T00:34:48.149Z,8.95
2022-11-25T00:39:50.484Z,6.82
2022-11-25T00:44:52.644Z,8.50
2022-11-25T00:49:54.842Z,14.57
2022-11-25T00:54:56.724Z,6.63
2022-11-25T00:59:58.555Z,6.78
2022-11-25T01:05:00.279Z,9.98
2022-11-25T01:10:02.116Z,5.13
2022-11-25T01:15:04.156Z,5.38
2022-11-25T01:20:06.702Z,8.18
2022-11-25T01:25:08.628Z,7.00
2022-11-25T01:30:10.870Z,5.03
2022-11-25T01:35:12.599Z,6.93
2022-11-25T01:40:15.008Z,7.90
2022-11-25T01:45:37.663Z,13.27
2022-11-25T01:50:41.451Z,8.07
2022-11-25T01:55:48.104Z,9.05
2022-11-25T02:00:52.934Z,5.47
2022-11-25T02:06:16.612Z,7.75
2022-11-25T02:11:20.596Z,8.98
2022-11-25T02:16:22.505Z,8.30
2022-11-25T02:21:33.737Z,8.98
2022-11-25T02:26:35.663Z,5.78
2022-11-25T02:31:37.566Z,9.80
2022-11-25T02:36:39.386Z,6.25
2022-11-25T02:41:47.268Z,9.00
2022-11-25T02:46:49.212Z,9.88
2022-11-25T02:51:53.747Z,16.90
2022-11-25T02:56:55.624Z,13.05
2022-11-25T03:01:57.557Z,6.57
2022-11-25T03:07:01.264Z,10.13
2022-11-25T03:12:21.396Z,11.63
2022-11-25T03:17:28.575Z,13.70
2022-11-25T03:22:30.417Z,9.48
2022-11-25T03:27:34.604Z,7.20
2022-11-25T03:32:37.156Z,7.15
2022-11-25T03:37:39.270Z,15.25
2022-11-25T03:42:42.929Z,9.88
2022-11-25T03:47:45.784Z,10.38
2022-11-25T03:52:47.659Z,10.30
2022-11-25T03:57:49.727Z,10.75
2022-11-25T04:02:52.253Z,11.45
2022-11-25T04:07:58.127Z,10.65
2022-11-25T04:13:01.019Z,13.75
2022-11-25T04:18:14.124Z,9.13
2022-11-25T04:23:15.943Z,10.45
2022-11-25T04:28:25.791Z,9.20
2022-11-25T04:33:27.700Z,7.43
2022-11-25T04:38:29.812Z,8.98
2022-11-25T04:43:33.747Z,12.20
2022-11-25T04:48:40.716Z,23.27
2022-11-25T04:53:44.106Z,10.57
2022-11-25T04:59:05.586Z,10.15
2022-11-25T05:04:10.765Z,9.43
2022-11-25T05:09:13.544Z,5.45
2022-11-25T05:14:18.938Z,6.65
2022-11-25T05:19:20.967Z,6.28
2022-11-25T05:24:24.699Z,6.88
2022-11-25T05:29:27.548Z,6.65
2022-11-25T05:34:29.531Z,8.95
2022-11-25T05:39:31.647Z,9.10
2022-11-25T05:45:03.252Z,9.57
2022-11-25T05:50:07.539Z,10.95
2022-11-25T05:55:09.718Z,9.13
2022-11-25T06:00:12.283Z,12.48
2022-11-25T06:05:17.123Z,10.98
2022-11-25T06:10:20.409Z,97.47
2022-11-25T06:15:23.511Z,33.15
2022-11-25T06:20:27.708Z,17.83
2022-11-25T06:25:30.640Z,9.98
2022-11-25T06:30:33.313Z,8.80
2022-11-25T06:36:13.414Z,11.93
2022-11-25T06:41:15.479Z,10.10
2022-11-25T06:46:24.848Z,9.82
2022-11-25T06:51:27.334Z,7.43
2022-11-25T06:56:29.668Z,9.65
2022-11-25T07:01:31.529Z,9.07
2022-11-25T07:06:34.097Z,9.10
2022-11-25T07:11:39.391Z,9.57
2022-11-25T07:16:44.154Z,8.75
2022-11-25T07:21:46.928Z,6.25
2022-11-25T07:26:48.687Z,8.52
2022-11-25T07:31:50.422Z,7.43
2022-11-25T07:36:52.211Z,7.13
2022-11-25T07:41:54.652Z,9.00
2022-11-25T07:46:56.625Z,7.72
2022-11-25T07:52:08.159Z,8.23
2022-11-25T07:57:09.919Z,9.90
2022-11-25T08:02:11.713Z,9.60
2022-11-25T08:07:13.549Z,10.32
2022-11-25T08:12:15.343Z,17.08
2022-11-25T08:17:17.137Z,14.95
2022-11-25T08:22:19.060Z,13.65
2022-11-25T08:27:20.820Z,10.88
2022-11-25T08:32:22.568Z,11.02
2022-11-25T08:37:24.332Z,12.57
2022-11-25T08:42:26.955Z,9.43
2022-11-25T08:47:28.948Z,9.65
2022-11-25T08:52:30.750Z,9.65
2022-11-25T08:57:32.503Z,7.38
2022-11-25T09:02:34.310Z,10.48
2022-11-25T09:07:37.217Z,17.45
2022-11-25T09:12:39.076Z,16.52
2022-11-25T09:17:40.938Z,19.75
2022-11-25T09:22:42.753Z,19.55
2022-11-25T09:27:44.595Z,24.30
2022-11-25T09:32:49.511Z,21.15
2022-11-25T09:37:52.633Z,20.90
2022-11-25T09:43:26.734Z,20.13
2022-11-25T09:48:42.616Z,22.88
2022-11-25T09:54:09.494Z,30.45
2022-11-25T09:59:26.950Z,60.90
2022-11-25T10:04:42.303Z,48.00
2022-11-25T10:09:44.144Z,44.53
2022-11-25T10:14:53.624Z,19.20
2022-11-25T10:20:33.650Z,19.13
2022-11-25T10:25:39.451Z,17.17
2022-11-25T10:30:50.985Z,14.70
2022-11-25T10:35:56.989Z,13.45
2022-11-25T10:40:59.943Z,14.48
2022-11-25T10:46:24.548Z,12.35
2022-11-25T10:51:48.367Z,13.73
2022-11-25T10:57:02.117Z,12.40
2022-11-25T11:02:21.495Z,12.00
2022-11-25T11:07:25.271Z,13.18
2022-11-25T11:12:28.920Z,16.15
2022-11-25T11:17:36.777Z,19.73
2022-11-25T11:22:48.172Z,17.38
2022-11-25T11:27:50.051Z,12.85
2022-11-25T11:32:58.860Z,14.00
2022-11-25T11:38:18.996Z,16.05
2022-11-25T11:43:39.292Z,15.00
2022-11-25T11:49:27.627Z,18.25
2022-11-25T11:54:53.487Z,15.70
2022-11-25T11:59:56.341Z,16.55
2022-11-25T12:05:10.087Z,16.85
2022-11-25T12:10:14.795Z,18.02
2022-11-25T12:15:22.256Z,17.83
2022-11-25T12:20:57.549Z,18.00
2022-11-25T12:26:07.036Z,16.08
2022-11-25T12:31:27.622Z,31.23
2022-11-25T12:36:33.156Z,27.63
2022-11-25T12:41:58.367Z,21.52
2022-11-25T12:47:00.296Z,18.33
2022-11-25T12:52:32.211Z,18.17
2022-11-25T12:57:49.622Z,25.60
2022-11-25T13:03:03.528Z,23.67
2022-11-25T13:08:30.307Z,21.90
2022-11-25T13:13:42.615Z,18.23
2022-11-25T13:18:45.713Z,22.58
2022-11-25T13:23:58.579Z,20.48
2022-11-25T13:29:05.759Z,20.30
2022-11-25T13:34:25.294Z,21.13
2022-11-25T13:39:35.567Z,21.25
2022-11-25T13:44:56.403Z,23.98
2022-11-25T13:50:00.561Z,22.00
2022-11-25T13:55:18.499Z,23.17
2022-11-25T14:00:20.212Z,20.08
2022-11-25T14:05:54.284Z,29.33
2022-11-25T14:11:31.163Z,26.23
2022-11-25T14:16:41.930Z,27.15
2022-11-25T14:22:17.038Z,22.98
2022-11-25T14:27:28.788Z,51.13
2022-11-25T14:32:53.198Z,30.13
2022-11-25T14:38:07.010Z,30.33
2022-11-25T14:43:24.032Z,27.10
2022-11-25T14:48:26.079Z,25.10
2022-11-25T14:53:30.098Z,24.85
2022-11-25T14:58:31.972Z,22.48
2022-11-25T15:03:34.075Z,27.35
2022-11-25T15:08:40.877Z,26.02
2022-11-25T15:13:48.723Z,23.50
2022-11-25T15:24:00.125Z,27.38
2022-11-25T15:29:04.272Z,23.05
2022-11-25T15:34:10.751Z,25.20
2022-11-25T15:39:21.705Z,23.95
2022-11-25T15:44:30.818Z,26.80
2022-11-25T15:49:35.841Z,22.10
2022-11-25T15:54:44.768Z,27.38
2022-11-25T16:00:04.854Z,26.42
2022-11-25T16:05:17.037Z,24.10
2022-11-25T16:10:28.435Z,25.67
2022-11-25T16:16:08.261Z,31.13
2022-11-25T16:21:23.081Z,24.20
2022-11-25T16:26:29.800Z,29.58
2022-11-25T16:31:31.639Z,30.38
2022-11-25T16:36:33.388Z,28.27
2022-11-25T16:41:36.326Z,40.00
2022-11-25T16:46:38.048Z,34.00
2022-11-25T16:51:39.932Z,55.80
2022-11-25T16:56:43.575Z,26.48
2022-11-25T17:01:46.423Z,30.52
2022-11-25T17:07:16.540Z,28.50
2022-11-25T17:12:20.064Z,24.92
2022-11-25T17:17:25.141Z,20.98
2022-11-25T17:22:28.363Z,23.02
2022-11-25T17:27:32.357Z,21.13
2022-11-25T17:32:35.597Z,16.83
2022-11-25T17:37:37.315Z,17.02
2022-11-25T17:42:39.797Z,15.63
2022-11-25T17:47:41.713Z,11.68
2022-11-25T17:52:43.658Z,10.40
2022-11-25T17:57:55.051Z,7.93
2022-11-25T18:02:56.866Z,8.98
2022-11-25T18:07:59.909Z,11.70
2022-11-25T18:13:02.946Z,18.52
2022-11-25T18:18:18.595Z,13.75
2022-11-25T18:23:20.387Z,15.55
2022-11-25T18:28:24.792Z,11.05
2022-11-25T18:33:26.507Z,11.60
2022-11-25T18:38:28.237Z,10.45
2022-11-25T18:43:30.148Z,12.10
2022-11-25T18:48:31.932Z,19.08
2022-11-25T18:53:33.683Z,16.30
2022-11-25T18:58:36.295Z,15.32
2022-11-25T19:03:38.339Z,10.88
2022-11-25T19:08:40.351Z,13.23
2022-11-25T19:13:47.726Z,12.40
2022-11-25T19:18:49.751Z,13.48
2022-11-25T19:23:51.499Z,16.67
2022-11-25T19:29:00.784Z,16.02
2022-11-25T19:34:03.533Z,36.67
2022-11-25T19:39:16.317Z,15.35
2022-11-25T19:44:18.096Z,15.95
2022-11-25T19:49:20.266Z,19.90
2022-11-25T19:54:21.996Z,20.10
2022-11-25T19:59:23.889Z,16.23
2022-11-25T20:04:25.674Z,17.25
2022-11-25T20:09:27.664Z,21.77
2022-11-25T20:14:34.642Z,23.63
2022-11-25T20:19:36.752Z,22.67
2022-11-25T20:24:38.684Z,23.30
2022-11-25T20:29:40.632Z,18.73
2022-11-25T20:34:42.542Z,21.88
2022-11-25T20:39:44.883Z,22.45
2022-11-25T20:44:47.068Z,24.48
2022-11-25T20:49:48.904Z,23.20
2022-11-25T20:54:50.685Z,28.92
2022-11-25T20:59:52.472Z,24.05
2022-11-25T21:04:54.264Z,23.27
2022-11-25T21:09:56.009Z,25.65
2022-11-25T21:14:57.772Z,24.45
2022-11-25T21:19:59.527Z,26.42
2022-11-25T21:25:01.395Z,26.98
2022-11-25T21:30:05.060Z,28.63
2022-11-25T21:35:08.976Z,25.35
2022-11-25T21:40:32.188Z,26.80
2022-11-25T21:45:33.993Z,23.45
2022-11-25T21:50:35.939Z,21.58
2022-11-25T21:55:37.696Z,21.75
2022-11-25T22:00:40.664Z,20.77
2022-11-25T22:05:42.475Z,23.02
2022-11-25T22:10:50.084Z,24.15
2022-11-25T22:15:56.716Z,23.45
2022-11-25T22:20:59.584Z,21.20
2022-11-25T22:26:03.940Z,23.38
2022-11-25T22:31:10.743Z,21.02
2022-11-25T22:36:36.882Z,23.48
2022-11-25T22:41:38.820Z,23.65
2022-11-25T22:46:40.813Z,22.55
2022-11-25T22:51:43.907Z,23.73
2022-11-25T22:56:45.885Z,29.40
2022-11-25T23:01:48.025Z,24.30
2022-11-25T23:06:51.283Z,22.30
2022-11-25T23:11:53.076Z,20.08
2022-11-25T23:16:55.758Z,26.13
2022-11-25T23:21:57.587Z,25.70
2022-11-25T23:26:59.331Z,23.13
2022-11-25T23:32:04.826Z,20.25
2022-11-25T23:37:06.671Z,27.05
2022-11-25T23:42:19.215Z,25.00
2022-11-25T23:47:22.840Z,23.70
2022-11-25T23:52:27.886Z,23.33
2022-11-25T23:57:33.532Z,19.35
